createdAt,value
2023-07-11T00:00:15.662Z,100239.59
2023-07-11T00:00:47.244Z,100244.88
2023-07-11T00:01:18.890Z,100238.59
2023-07-11T00:01:50.494Z,100237.31
2023-07-11T00:02:21.962Z,100238.13
2023-07-11T00:02:53.641Z,100242.97
2023-07-11T00:03:25.274Z,100239.41
2023-07-11T00:03:58.792Z,100236.66
2023-07-11T00:04:30.307Z,100241.97
2023-07-11T00:05:01.743Z,100243.59
2023-07-11T00:05:33.194Z,100240.22
2023-07-11T00:06:05.025Z,100241.34
2023-07-11T00:06:36.694Z,100237.63
2023-07-11T00:07:08.243Z,100238.44
2023-07-11T00:07:39.766Z,100240.88
2023-07-11T00:08:11.356Z,100238.44
2023-07-11T00:08:42.821Z,100237.78
2023-07-11T00:09:14.253Z,100242.97
2023-07-11T00:09:45.726Z,100234.56
2023-07-11T00:10:17.174Z,100239.25
2023-07-11T00:10:48.581Z,100235.69
2023-07-11T00:11:20.059Z,100234.88
2023-07-11T00:11:51.563Z,100234.38
2023-07-11T00:12:23.181Z,100237.63
2023-07-11T00:12:54.619Z,100236.50
2023-07-11T00:13:26.100Z,100233.75
2023-07-11T00:13:57.577Z,100236.19
2023-07-11T00:14:29.086Z,100237.78
2023-07-11T00:15:00.574Z,100236.50
2023-07-11T00:15:32.027Z,100227.75
2023-07-11T00:16:03.656Z,100229.38
2023-07-11T00:16:35.188Z,100228.56
2023-07-11T00:17:06.859Z,100225.31
2023-07-11T00:17:39.377Z,100230.69
2023-07-11T00:18:10.892Z,100228.28
2023-07-11T00:18:42.371Z,100232.28
2023-07-11T00:19:13.834Z,100232.63
2023-07-11T00:19:45.334Z,100224.41
2023-07-11T00:20:16.804Z,100228.78
2023-07-11T00:20:48.319Z,100227.63
2023-07-11T00:21:19.791Z,100218.41
2023-07-11T00:21:51.263Z,100221.66
2023-07-11T00:22:22.792Z,100226.03
2023-07-11T00:22:54.347Z,100218.72
2023-07-11T00:23:25.913Z,100216.47
2023-07-11T00:23:57.475Z,100221.97
2023-07-11T00:24:28.973Z,100215.66
2023-07-11T00:25:00.471Z,100222.13
2023-07-11T00:25:31.928Z,100222.78
2023-07-11T00:26:03.407Z,100218.09
2023-07-11T00:26:34.893Z,100218.91
2023-07-11T00:27:06.329Z,100216.47
2023-07-11T00:27:37.837Z,100219.03
2023-07-11T00:28:09.276Z,100208.34
2023-07-11T00:28:40.696Z,100207.44
2023-07-11T00:29:12.193Z,100211.63
2023-07-11T00:29:43.625Z,100209.19
2023-07-11T00:30:15.155Z,100215.16
2023-07-11T00:30:46.668Z,100206.13
2023-07-11T00:31:18.157Z,100220.66
2023-07-11T00:31:49.668Z,100210.19
2023-07-11T00:32:21.200Z,100209.69
2023-07-11T00:32:52.762Z,100212.44
2023-07-11T00:33:24.388Z,100212.31
2023-07-11T00:33:56.150Z,100213.44
2023-07-11T00:34:27.614Z,100212.94
2023-07-11T00:34:59.045Z,100206.94
2023-07-11T00:35:30.504Z,100209.06
2023-07-11T00:36:01.995Z,100206.31
2023-07-11T00:36:33.467Z,100206.31
2023-07-11T00:37:04.932Z,100209.56
2023-07-11T00:37:36.373Z,100211.00
2023-07-11T00:38:07.875Z,100209.88
2023-07-11T00:38:39.352Z,100204.38
2023-07-11T00:39:10.803Z,100201.97
2023-07-11T00:39:42.262Z,100204.69
2023-07-11T00:40:13.698Z,100200.03
2023-07-11T00:40:45.196Z,100203.56
2023-07-11T00:41:16.688Z,100196.47
2023-07-11T00:41:48.174Z,100198.41
2023-07-11T00:42:19.781Z,100194.84
2023-07-11T00:42:51.345Z,100193.53
2023-07-11T00:43:22.925Z,100201.44
2023-07-11T00:43:54.564Z,100188.03
2023-07-11T00:44:26.270Z,100195.16
2023-07-11T00:44:57.822Z,100191.28
2023-07-11T00:45:29.242Z,100187.13
2023-07-11T00:46:00.705Z,100193.09
2023-07-11T00:46:32.178Z,100195.34
2023-07-11T00:47:03.841Z,100189.34
2023-07-11T00:47:35.806Z,100192.59
2023-07-11T00:48:39.744Z,100194.22
2023-07-11T00:49:10.975Z,100199.38
2023-07-11T00:49:42.318Z,100188.25
2023-07-11T00:50:13.848Z,100191.97
2023-07-11T00:50:45.253Z,100195.34
2023-07-11T00:51:16.666Z,100192.59
2023-07-11T00:51:48.135Z,100187.13
2023-07-11T00:52:19.536Z,100191.47
2023-07-11T00:52:50.973Z,100187.44
2023-07-11T00:53:22.383Z,100190.97
2023-07-11T00:53:53.828Z,100185.00
2023-07-11T00:54:25.378Z,100189.88
2023-07-11T00:54:56.775Z,100191.78
2023-07-11T00:55:28.224Z,100195.34
2023-07-11T00:55:59.634Z,100196.97
2023-07-11T00:56:31.185Z,100190.69
2023-07-11T00:57:02.630Z,100188.75
2023-07-11T00:57:34.108Z,100177.88
2023-07-11T00:58:05.554Z,100186.00
2023-07-11T00:58:36.973Z,100186.63
2023-07-11T00:59:08.465Z,100182.44
2023-07-11T00:59:39.908Z,100182.25
2023-07-11T01:00:11.374Z,100182.25
2023-07-11T01:00:42.877Z,100180.31
2023-07-11T01:01:14.413Z,100182.75
2023-07-11T01:01:45.976Z,100179.19
2023-07-11T01:02:17.405Z,100177.25
2023-07-11T01:02:48.906Z,100168.84
2023-07-11T01:03:20.490Z,100171.88
2023-07-11T01:03:51.986Z,100169.66
2023-07-11T01:04:23.623Z,100167.72
2023-07-11T01:04:55.092Z,100172.41
2023-07-11T01:05:26.530Z,100167.19
2023-07-11T01:05:57.961Z,100173.78
2023-07-11T01:06:29.369Z,100167.50
2023-07-11T01:07:00.798Z,100173.50
2023-07-11T01:07:32.279Z,100171.88
2023-07-11T01:08:03.772Z,100170.25
2023-07-11T01:08:35.219Z,100173.50
2023-07-11T01:09:06.662Z,100168.31
2023-07-11T01:09:38.123Z,100168.63
2023-07-11T01:10:09.617Z,100172.47
2023-07-11T01:10:41.111Z,100166.69
2023-07-11T01:11:12.519Z,100172.97
2023-07-11T01:11:43.985Z,100169.75
2023-07-11T01:12:15.398Z,100165.38
2023-07-11T01:12:46.830Z,100166.50
2023-07-11T01:13:18.303Z,100164.25
2023-07-11T01:13:49.764Z,100172.47
2023-07-11T01:14:21.311Z,100169.22
2023-07-11T01:14:52.905Z,100174.72
2023-07-11T01:15:24.440Z,100166.50
2023-07-11T01:15:55.872Z,100171.16
2023-07-11T01:16:27.577Z,100171.66
2023-07-11T01:16:59.061Z,100168.13
2023-07-11T01:17:30.614Z,100167.00
2023-07-11T01:18:02.176Z,100170.84
2023-07-11T01:18:33.623Z,100166.19
2023-07-11T01:19:05.103Z,100170.56
2023-07-11T01:19:36.570Z,100165.88
2023-07-11T01:20:08.031Z,100173.59
2023-07-11T01:20:39.567Z,100168.13
2023-07-11T01:21:10.995Z,100166.69
2023-07-11T01:21:42.447Z,100166.19
2023-07-11T01:22:13.931Z,100171.66
2023-07-11T01:22:45.363Z,100168.13
2023-07-11T01:23:16.832Z,100163.25
2023-07-11T01:23:48.770Z,100160.19
2023-07-11T01:24:20.553Z,100168.44
2023-07-11T01:24:51.974Z,100168.44
2023-07-11T01:25:23.375Z,100167.31
2023-07-11T01:25:54.788Z,100162.63
2023-07-11T01:26:26.229Z,100161.00
2023-07-11T01:26:57.614Z,100161.00
2023-07-11T01:27:29.079Z,100166.50
2023-07-11T01:28:00.561Z,100163.75
2023-07-11T01:28:32.013Z,100159.88
2023-07-11T01:29:03.425Z,100163.75
2023-07-11T01:29:34.813Z,100161.00
2023-07-11T01:30:06.262Z,100159.38
2023-07-11T01:30:37.678Z,100159.38
2023-07-11T01:31:09.255Z,100158.25
2023-07-11T01:31:40.721Z,100153.91
2023-07-11T01:32:12.177Z,100146.19
2023-07-11T01:32:43.604Z,100151.66
2023-07-11T01:33:15.079Z,100156.03
2023-07-11T01:33:46.642Z,100154.72
2023-07-11T01:34:18.075Z,100155.53
2023-07-11T01:34:49.572Z,100155.53
2023-07-11T01:35:21.005Z,100159.38
2023-07-11T01:35:52.500Z,100146.47
2023-07-11T01:36:23.964Z,100150.84
2023-07-11T01:36:55.348Z,100161.00
2023-07-11T01:37:26.775Z,100149.22
2023-07-11T01:37:58.206Z,100151.66
2023-07-11T01:38:29.635Z,100157.47
2023-07-11T01:39:01.153Z,100154.72
2023-07-11T01:39:32.599Z,100153.91
2023-07-11T01:40:04.019Z,100152.78
2023-07-11T01:40:35.480Z,100151.97
2023-07-11T01:41:07.017Z,100159.38
2023-07-11T01:41:38.436Z,100158.56
2023-07-11T01:42:09.856Z,100155.53
2023-07-11T01:42:41.271Z,100148.91
2023-07-11T01:43:12.837Z,100148.41
2023-07-11T01:43:44.253Z,100155.53
2023-07-11T01:44:15.749Z,100145.38
2023-07-11T01:44:47.214Z,100151.16
2023-07-11T01:45:18.716Z,100148.59
2023-07-11T01:45:50.274Z,100143.75
2023-07-11T01:46:21.721Z,100144.56
2023-07-11T01:46:53.262Z,100146.19
2023-07-11T01:47:24.722Z,100144.84
2023-07-11T01:47:56.239Z,100144.06
2023-07-11T01:48:27.738Z,100145.66
2023-07-11T01:48:59.206Z,100148.09
2023-07-11T01:49:30.615Z,100141.81
2023-07-11T01:50:02.278Z,100142.94
2023-07-11T01:50:33.689Z,100152.78
2023-07-11T01:51:05.173Z,100142.31
2023-07-11T01:51:36.670Z,100148.09
2023-07-11T01:52:08.095Z,100146.19
2023-07-11T01:52:39.514Z,100150.03
2023-07-11T01:53:10.975Z,100157.16
2023-07-11T01:53:42.421Z,100155.53
2023-07-11T01:54:13.846Z,100152.28
2023-07-11T01:54:45.291Z,100157.16
2023-07-11T01:55:16.781Z,100142.94
2023-07-11T01:55:48.243Z,100151.16
2023-07-11T01:56:19.695Z,100151.97
2023-07-11T01:56:51.118Z,100143.75
2023-07-11T01:57:22.569Z,100155.53
2023-07-11T01:57:53.990Z,100143.75
2023-07-11T01:58:25.436Z,100143.75
2023-07-11T01:58:56.882Z,100145.66
2023-07-11T01:59:28.328Z,100143.25
2023-07-11T01:59:59.779Z,100146.47
2023-07-11T02:00:31.316Z,100149.53
2023-07-11T02:01:02.741Z,100149.53
2023-07-11T02:01:34.293Z,100144.06
2023-07-11T02:02:05.771Z,100150.34
2023-07-11T02:02:37.301Z,100153.09
2023-07-11T02:03:08.857Z,100140.50
2023-07-11T02:03:40.366Z,100136.94
2023-07-11T02:04:11.836Z,100148.72
2023-07-11T02:04:43.251Z,100140.50
2023-07-11T02:05:14.668Z,100138.88
2023-07-11T02:05:46.214Z,100147.91
2023-07-11T02:06:17.632Z,100137.25
2023-07-11T02:06:49.077Z,100135.81
2023-07-11T02:07:20.528Z,100141.63
2023-07-11T02:07:51.948Z,100142.44
2023-07-11T02:08:23.370Z,100144.06
2023-07-11T02:08:54.911Z,100143.75
2023-07-11T02:09:26.401Z,100135.81
2023-07-11T02:09:57.972Z,100144.06
2023-07-11T02:10:29.427Z,100145.66
2023-07-11T02:11:01.045Z,100144.84
2023-07-11T02:11:32.510Z,100151.47
2023-07-11T02:12:03.913Z,100150.34
2023-07-11T02:12:35.366Z,100141.63
2023-07-11T02:13:06.931Z,100137.44
2023-07-11T02:13:38.463Z,100139.38
2023-07-11T02:14:09.993Z,100137.44
2023-07-11T02:14:41.467Z,100140.19
2023-07-11T02:15:12.925Z,100143.44
2023-07-11T02:15:44.362Z,100135.81
2023-07-11T02:16:15.906Z,100136.63
2023-07-11T02:16:47.473Z,100141.81
2023-07-11T02:17:19.120Z,100140.50
2023-07-11T02:17:50.818Z,100136.31
2023-07-11T02:18:22.383Z,100130.84
2023-07-11T02:18:53.825Z,100137.75
2023-07-11T02:19:25.363Z,100137.75
2023-07-11T02:19:56.879Z,100134.19
2023-07-11T02:20:28.312Z,100132.56
2023-07-11T02:20:59.714Z,100135.81
2023-07-11T02:21:31.178Z,100132.56
2023-07-11T02:22:02.660Z,100132.56
2023-07-11T02:22:34.293Z,100133.38
2023-07-11T02:23:05.859Z,100132.56
2023-07-11T02:23:37.299Z,100123.72
2023-07-11T02:24:08.818Z,100124.03
2023-07-11T02:24:40.357Z,100121.81
2023-07-11T02:25:11.891Z,100123.41
2023-07-11T02:25:43.402Z,100125.66
2023-07-11T02:26:14.863Z,100119.38
2023-07-11T02:26:46.374Z,100125.66
2023-07-11T02:27:17.862Z,100120.19
2023-07-11T02:27:49.350Z,100127.28
2023-07-11T02:28:20.816Z,100126.47
2023-07-11T02:28:52.224Z,100123.72
2023-07-11T02:29:23.632Z,100127.09
2023-07-11T02:29:55.056Z,100124.03
2023-07-11T02:30:26.456Z,100129.22
2023-07-11T02:30:57.869Z,100124.84
2023-07-11T02:31:29.378Z,100122.09
2023-07-11T02:32:01.006Z,100124.03
2023-07-11T02:32:32.613Z,100125.66
2023-07-11T02:33:04.137Z,100122.91
2023-07-11T02:33:35.552Z,100115.00
2023-07-11T02:34:06.999Z,100124.34
2023-07-11T02:34:38.452Z,100117.75
2023-07-11T02:35:09.888Z,100116.94
2023-07-11T02:35:41.331Z,100122.09
2023-07-11T02:36:12.858Z,100115.00
2023-07-11T02:36:44.315Z,100121.00
2023-07-11T02:37:15.890Z,100120.19
2023-07-11T02:37:47.369Z,100122.09
2023-07-11T02:38:18.899Z,100121.00
2023-07-11T02:38:50.297Z,100118.56
2023-07-11T02:39:21.779Z,100121.28
2023-07-11T02:39:53.175Z,100117.75
2023-07-11T02:40:24.637Z,100120.50
2023-07-11T02:40:56.120Z,100116.63
2023-07-11T02:41:27.612Z,100113.06
2023-07-11T02:41:59.284Z,100114.19
2023-07-11T02:42:30.692Z,100118.88
2023-07-11T02:43:02.148Z,100115.00
2023-07-11T02:43:33.567Z,100113.88
2023-07-11T02:44:04.990Z,100118.56
2023-07-11T02:44:36.437Z,100109.22
2023-07-11T02:45:07.877Z,100118.25
2023-07-11T02:45:39.346Z,100112.75
2023-07-11T02:46:10.940Z,100109.22
2023-07-11T02:46:42.396Z,100115.00
2023-07-11T02:47:13.774Z,100109.50
2023-07-11T02:47:45.312Z,100104.03
2023-07-11T02:48:16.737Z,100107.28
2023-07-11T02:48:48.147Z,100106.78
2023-07-11T02:49:19.576Z,100107.59
2023-07-11T02:49:51.007Z,100115.50
2023-07-11T02:50:22.432Z,100113.06
2023-07-11T02:50:53.869Z,100111.63
2023-07-11T02:51:25.283Z,100109.72
2023-07-11T02:51:56.763Z,100109.22
2023-07-11T02:52:28.229Z,100110.00
2023-07-11T02:52:59.745Z,100111.63
2023-07-11T02:53:31.176Z,100102.91
2023-07-11T02:54:02.638Z,100105.16
2023-07-11T02:54:34.061Z,100106.47
2023-07-11T02:55:05.468Z,100112.75
2023-07-11T02:55:36.928Z,100109.22
2023-07-11T02:56:08.789Z,100105.97
2023-07-11T02:56:40.429Z,100107.78
2023-07-11T02:57:11.873Z,100107.28
2023-07-11T02:57:43.287Z,100105.34
2023-07-11T02:58:14.692Z,100106.16
2023-07-11T02:58:46.241Z,100103.72
2023-07-11T02:59:17.676Z,100102.41
2023-07-11T02:59:49.100Z,100099.66
2023-07-11T03:00:20.540Z,100105.66
2023-07-11T03:00:52.013Z,100102.09
2023-07-11T03:01:23.541Z,100100.34
2023-07-11T03:01:54.986Z,100091.94
2023-07-11T03:02:26.491Z,100093.56
2023-07-11T03:02:57.950Z,100098.22
2023-07-11T03:03:29.439Z,100097.44
2023-07-11T03:04:00.857Z,100102.09
2023-07-11T03:04:32.311Z,100096.31
2023-07-11T03:05:04.049Z,100096.31
2023-07-11T03:05:36.308Z,100092.13
2023-07-11T03:06:08.055Z,100088.88
2023-07-11T03:06:39.665Z,100088.06
2023-07-11T03:07:11.064Z,100088.56
2023-07-11T03:07:42.540Z,100085.34
2023-07-11T03:08:13.955Z,100092.44
2023-07-11T03:08:45.389Z,100092.94
2023-07-11T03:09:16.844Z,100089.38
2023-07-11T03:09:48.297Z,100088.75
2023-07-11T03:10:19.694Z,100080.34
2023-07-11T03:10:51.142Z,100091.31
2023-07-11T03:11:22.550Z,100084.22
2023-07-11T03:11:54.007Z,100092.13
2023-07-11T03:12:25.481Z,100089.69
2023-07-11T03:12:56.914Z,100092.94
2023-07-11T03:13:28.428Z,100085.03
2023-07-11T03:14:00.052Z,100089.69
2023-07-11T03:14:31.596Z,100091.31
2023-07-11T03:15:04.600Z,100088.06
2023-07-11T03:15:36.434Z,100092.94
2023-07-11T03:16:08.091Z,100079.84
2023-07-11T03:16:39.735Z,100091.31
2023-07-11T03:17:11.258Z,100078.09
2023-07-11T03:17:42.828Z,100085.84
2023-07-11T03:18:14.340Z,100083.41
2023-07-11T03:18:45.911Z,100082.78
2023-07-11T03:19:17.401Z,100086.66
2023-07-11T03:19:48.765Z,100085.53
2023-07-11T03:20:20.158Z,100079.22
2023-07-11T03:20:51.626Z,100078.72
2023-07-11T03:21:23.076Z,100078.72
2023-07-11T03:21:54.482Z,100071.31
2023-07-11T03:22:25.916Z,100076.97
2023-07-11T03:22:57.336Z,100077.78
2023-07-11T03:23:28.810Z,100076.47
2023-07-11T03:24:00.295Z,100074.56
2023-07-11T03:24:31.758Z,100072.44
2023-07-11T03:25:03.181Z,100074.06
2023-07-11T03:25:34.648Z,100072.44
2023-07-11T03:26:06.400Z,100080.34
2023-07-11T03:26:38.130Z,100071.63
2023-07-11T03:27:09.674Z,100071.31
2023-07-11T03:27:41.131Z,100066.31
2023-07-11T03:28:12.647Z,100068.75
2023-07-11T03:28:44.101Z,100068.75
2023-07-11T03:29:15.488Z,100063.88
2023-07-11T03:29:46.927Z,100068.56
2023-07-11T03:30:18.390Z,100063.09
2023-07-11T03:30:49.985Z,100064.69
2023-07-11T03:31:21.560Z,100065.50
2023-07-11T03:31:53.054Z,100065.81
2023-07-11T03:32:24.487Z,100069.06
2023-07-11T03:32:56.107Z,100060.84
2023-07-11T03:33:27.575Z,100057.28
2023-07-11T03:33:59.063Z,100054.84
2023-07-11T03:34:30.503Z,100066.13
2023-07-11T03:35:03.842Z,100056.28
2023-07-11T03:35:35.578Z,100057.91
2023-07-11T03:36:07.254Z,100059.03
2023-07-11T03:36:38.877Z,100055.16
2023-07-11T03:37:10.317Z,100052.91
2023-07-11T03:37:41.800Z,100062.47
2023-07-11T03:38:13.239Z,100055.16
2023-07-11T03:38:44.699Z,100054.34
2023-07-11T03:39:16.193Z,100060.16
2023-07-11T03:39:47.619Z,100059.03
2023-07-11T03:40:19.093Z,100055.16
2023-07-11T03:40:50.538Z,100049.69
2023-07-11T03:41:21.945Z,100053.72
2023-07-11T03:41:53.443Z,100059.03
2023-07-11T03:42:24.869Z,100057.09
2023-07-11T03:42:56.404Z,100051.63
2023-07-11T03:43:27.885Z,100055.78
2023-07-11T03:43:59.310Z,100054.03
2023-07-11T03:44:30.703Z,100053.53
2023-07-11T03:45:02.098Z,100051.31
2023-07-11T03:45:33.512Z,100050.69
2023-07-11T03:46:05.084Z,100052.91
2023-07-11T03:46:36.639Z,100060.03
2023-07-11T03:47:08.189Z,100048.75
2023-07-11T03:47:39.634Z,100057.28
2023-07-11T03:48:11.113Z,100055.97
2023-07-11T03:48:42.599Z,100051.63
2023-07-11T03:49:14.033Z,100059.84
2023-07-11T03:49:45.424Z,100056.28
2023-07-11T03:50:16.850Z,100055.66
2023-07-11T03:50:48.260Z,100055.97
2023-07-11T03:51:19.682Z,100047.13
2023-07-11T03:51:51.107Z,100051.81
2023-07-11T03:52:22.535Z,100051.00
2023-07-11T03:52:54.023Z,100054.03
2023-07-11T03:53:25.442Z,100053.72
2023-07-11T03:53:57.010Z,100051.81
2023-07-11T03:54:28.500Z,100047.44
2023-07-11T03:54:59.972Z,100055.66
2023-07-11T03:55:31.407Z,100055.66
2023-07-11T03:56:02.830Z,100047.13
2023-07-11T03:56:34.397Z,100048.75
2023-07-11T03:57:05.832Z,100047.94
2023-07-11T03:57:37.274Z,100057.28
2023-07-11T03:58:08.748Z,100051.31
2023-07-11T03:58:40.153Z,100052.91
2023-07-11T03:59:11.602Z,100049.88
2023-07-11T03:59:43.001Z,100051.50
2023-07-11T04:00:14.413Z,100057.78
2023-07-11T04:00:46.542Z,100054.53
2023-07-11T04:01:18.168Z,100049.06
2023-07-11T04:01:49.615Z,100051.31
2023-07-11T04:02:21.061Z,100050.91
2023-07-11T04:02:52.645Z,100049.88
2023-07-11T04:03:24.269Z,100046.31
2023-07-11T04:03:55.857Z,100048.25
2023-07-11T04:04:27.576Z,100045.50
2023-07-11T04:04:59.069Z,100047.94
2023-07-11T04:05:30.635Z,100051.19
2023-07-11T04:06:02.024Z,100044.38
2023-07-11T04:06:33.464Z,100046.00
2023-07-11T04:07:04.855Z,100042.75
2023-07-11T04:07:36.355Z,100044.38
2023-07-11T04:08:07.778Z,100045.50
2023-07-11T04:08:39.235Z,100043.06
2023-07-11T04:09:10.625Z,100039.53
2023-07-11T04:09:42.136Z,100041.63
2023-07-11T04:10:13.676Z,100042.25
2023-07-11T04:10:45.135Z,100045.50
2023-07-11T04:11:16.670Z,100034.84
2023-07-11T04:11:48.118Z,100043.88
2023-07-11T04:12:19.596Z,100036.97
2023-07-11T04:12:51.002Z,100031.16
2023-07-11T04:13:22.423Z,100040.22
2023-07-11T04:13:53.854Z,100038.59
2023-07-11T04:14:25.376Z,100035.66
2023-07-11T04:14:56.906Z,100030.88
2023-07-11T04:15:28.485Z,100035.34
2023-07-11T04:15:59.910Z,100037.59
2023-07-11T04:16:31.452Z,100037.28
2023-07-11T04:17:03.041Z,100040.00
2023-07-11T04:17:34.574Z,100033.72
2023-07-11T04:18:05.989Z,100038.09
2023-07-11T04:18:37.563Z,100036.28
2023-07-11T04:19:09.007Z,100037.09
2023-07-11T04:19:40.487Z,100033.72
2023-07-11T04:20:11.986Z,100037.59
2023-07-11T04:20:43.531Z,100036.78
2023-07-11T04:21:14.994Z,100034.84
2023-07-11T04:21:46.436Z,100034.22
2023-07-11T04:22:17.917Z,100038.09
2023-07-11T04:22:49.385Z,100030.97
2023-07-11T04:23:20.832Z,100034.53
2023-07-11T04:23:52.250Z,100032.91
2023-07-11T04:24:23.663Z,100022.75
2023-07-11T04:24:55.141Z,100034.22
2023-07-11T04:25:26.562Z,100030.97
2023-07-11T04:25:58.051Z,100035.03
2023-07-11T04:26:29.441Z,100033.72
2023-07-11T04:27:00.912Z,100025.50
2023-07-11T04:27:32.422Z,100030.47
2023-07-11T04:28:03.894Z,100027.75
2023-07-11T04:28:35.459Z,100029.34
2023-07-11T04:29:06.934Z,100031.28
2023-07-11T04:29:38.350Z,100025.31
2023-07-11T04:30:09.778Z,100029.34
2023-07-11T04:30:41.285Z,100020.63
2023-07-11T04:31:12.866Z,100021.13
2023-07-11T04:31:44.388Z,100021.13
2023-07-11T04:32:15.795Z,100017.25
2023-07-11T04:32:47.262Z,100016.16
2023-07-11T04:33:19.321Z,100022.44
2023-07-11T04:33:50.927Z,100018.88
2023-07-11T04:34:22.436Z,100015.03
2023-07-11T04:34:53.852Z,100015.66
2023-07-11T04:35:25.317Z,100016.47
2023-07-11T04:35:56.829Z,100020.31
2023-07-11T04:36:28.325Z,100017.56
2023-07-11T04:36:59.739Z,100013.72
2023-07-11T04:37:31.225Z,100011.47
2023-07-11T04:38:02.631Z,100009.53
2023-07-11T04:38:34.192Z,100009.84
2023-07-11T04:39:05.670Z,100012.28
2023-07-11T04:39:37.122Z,100015.34
2023-07-11T04:40:08.603Z,100010.16
2023-07-11T04:40:40.063Z,100020.00
2023-07-11T04:41:11.509Z,100013.41
2023-07-11T04:41:42.970Z,100016.31
2023-07-11T04:42:14.420Z,100015.53
2023-07-11T04:42:45.934Z,100017.75
2023-07-11T04:43:17.399Z,100012.50
2023-07-11T04:43:48.840Z,100014.72
2023-07-11T04:44:20.282Z,100012.28
2023-07-11T04:44:51.711Z,100009.44
2023-07-11T04:45:23.152Z,100008.94
2023-07-11T04:45:54.654Z,100012.50
2023-07-11T04:46:26.101Z,100010.84
2023-07-11T04:46:57.601Z,100013.31
2023-07-11T04:47:29.177Z,100013.81
2023-07-11T04:48:00.675Z,100011.38
2023-07-11T04:48:32.113Z,100014.13
2023-07-11T04:49:03.539Z,100010.56
2023-07-11T04:49:35.034Z,100011.69
2023-07-11T04:50:06.485Z,100012.50
2023-07-11T04:50:37.938Z,100006.47
2023-07-11T04:51:09.408Z,100012.50
2023-07-11T04:51:40.953Z,100010.56
2023-07-11T04:52:12.422Z,100017.66
2023-07-11T04:52:43.878Z,100003.16
2023-07-11T04:53:15.339Z,100013.50
2023-07-11T04:53:46.812Z,100010.25
2023-07-11T04:54:18.260Z,100009.94
2023-07-11T04:54:49.708Z,100007.69
2023-07-11T04:55:21.128Z,100010.44
2023-07-11T04:55:52.560Z,100007.50
2023-07-11T04:56:24.022Z,100007.81
2023-07-11T04:56:55.515Z,100005.56
2023-07-11T04:57:26.968Z,100003.31
2023-07-11T04:57:58.441Z,100003.31
2023-07-11T04:58:29.934Z,100008.97
2023-07-11T04:59:01.361Z,100004.44
2023-07-11T04:59:32.869Z,100004.75
2023-07-11T05:00:04.321Z,99998.47
2023-07-11T05:00:35.752Z,100000.09
2023-07-11T05:01:07.155Z,100007.19
2023-07-11T05:01:38.687Z,99999.59
2023-07-11T05:02:10.553Z,99994.09
2023-07-11T05:02:42.057Z,100000.59
2023-07-11T05:03:13.536Z,99998.47
2023-07-11T05:03:45.013Z,100002.66
2023-07-11T05:04:16.666Z,99993.97
2023-07-11T05:04:48.219Z,100002.03
2023-07-11T05:05:19.753Z,100000.91
2023-07-11T05:05:51.176Z,99997.34
2023-07-11T05:06:22.629Z,99994.59
2023-07-11T05:06:54.047Z,99991.03
2023-07-11T05:07:25.548Z,99993.47
2023-07-11T05:07:57.035Z,99994.59
2023-07-11T05:08:28.428Z,99991.53
2023-07-11T05:08:59.878Z,99990.72
2023-07-11T05:09:31.339Z,99992.97
2023-07-11T05:10:02.758Z,99997.03
2023-07-11T05:10:34.253Z,99986.38
2023-07-11T05:11:05.674Z,99986.38
2023-07-11T05:11:37.129Z,99989.13
2023-07-11T05:12:08.642Z,99984.94
2023-07-11T05:12:40.144Z,99991.34
2023-07-11T05:13:13.008Z,99988.47
2023-07-11T05:13:45.815Z,99984.63
2023-07-11T05:14:17.385Z,99983.63
2023-07-11T05:14:48.915Z,99992.34
2023-07-11T05:15:20.320Z,99988.47
2023-07-11T05:15:51.924Z,99982.19
2023-07-11T05:16:23.517Z,99991.53
2023-07-11T05:16:55.021Z,99989.59
2023-07-11T05:17:26.531Z,99990.09
2023-07-11T05:17:58.183Z,99990.25
2023-07-11T05:18:29.627Z,99990.88
2023-07-11T05:19:01.078Z,99985.75
2023-07-11T05:19:32.528Z,99993.16
2023-07-11T05:20:03.942Z,99988.16
2023-07-11T05:20:35.376Z,99989.59
2023-07-11T05:21:06.843Z,99983.63
2023-07-11T05:21:38.288Z,99985.75
2023-07-11T05:22:09.781Z,99983.00
2023-07-11T05:22:41.233Z,99990.88
2023-07-11T05:23:12.765Z,99982.34
2023-07-11T05:23:44.246Z,99989.13
2023-07-11T05:24:15.641Z,99980.41
2023-07-11T05:24:47.120Z,99977.66
2023-07-11T05:25:18.558Z,99984.63
2023-07-11T05:25:50.000Z,99985.41
2023-07-11T05:26:21.428Z,99987.38
2023-07-11T05:26:52.842Z,99981.38
2023-07-11T05:27:24.278Z,99984.63
2023-07-11T05:27:55.731Z,99979.44
2023-07-11T05:28:27.178Z,99977.66
2023-07-11T05:28:58.652Z,99982.03
2023-07-11T05:29:30.086Z,99982.84
2023-07-11T05:30:01.469Z,99978.63
2023-07-11T05:30:32.910Z,99980.25
2023-07-11T05:31:04.442Z,99981.88
2023-07-11T05:31:35.931Z,99975.59
2023-07-11T05:32:07.565Z,99977.03
2023-07-11T05:32:39.116Z,99971.38
2023-07-11T05:33:10.531Z,99979.28
2023-07-11T05:33:42.012Z,99977.97
2023-07-11T05:34:13.414Z,99976.53
2023-07-11T05:34:44.821Z,99976.84
2023-07-11T05:35:16.386Z,99973.00
2023-07-11T05:35:47.869Z,99967.19
2023-07-11T05:36:19.412Z,99973.66
2023-07-11T05:36:50.812Z,99965.72
2023-07-11T05:37:22.264Z,99967.50
2023-07-11T05:37:53.686Z,99964.91
2023-07-11T05:38:25.078Z,99968.16
2023-07-11T05:38:56.632Z,99966.53
2023-07-11T05:39:28.062Z,99967.81
2023-07-11T05:39:59.529Z,99965.88
2023-07-11T05:40:30.941Z,99970.25
2023-07-11T05:41:02.385Z,99966.06
2023-07-11T05:41:33.877Z,99969.63
2023-07-11T05:42:05.324Z,99963.44
2023-07-11T05:42:36.770Z,99962.50
2023-07-11T05:43:08.250Z,99965.75
2023-07-11T05:43:39.682Z,99968.00
2023-07-11T05:44:11.104Z,99955.09
2023-07-11T05:44:42.548Z,99966.72
2023-07-11T05:45:14.029Z,99959.63
2023-07-11T05:45:45.576Z,99956.38
2023-07-11T05:46:17.067Z,99957.19
2023-07-11T05:46:48.834Z,99958.50
2023-07-11T05:47:20.413Z,99961.69
2023-07-11T05:47:51.920Z,99958.16
2023-07-11T05:48:23.451Z,99957.84
2023-07-11T05:48:54.894Z,99953.47
2023-07-11T05:49:26.371Z,99956.53
2023-07-11T05:49:57.839Z,99951.84
2023-07-11T05:50:29.257Z,99957.03
2023-07-11T05:51:00.714Z,99955.09
2023-07-11T05:51:32.180Z,99955.75
2023-07-11T05:52:03.762Z,99953.66
2023-07-11T05:52:35.266Z,99957.50
2023-07-11T05:53:06.691Z,99948.16
2023-07-11T05:53:38.115Z,99953.28
2023-07-11T05:54:09.649Z,99953.34
2023-07-11T05:54:41.144Z,99951.41
2023-07-11T05:55:12.638Z,99948.78
2023-07-11T05:55:44.124Z,99952.03
2023-07-11T05:56:15.613Z,99952.97
2023-07-11T05:56:47.239Z,99955.59
2023-07-11T05:57:18.744Z,99952.66
2023-07-11T05:57:50.200Z,99954.09
2023-07-11T05:58:21.716Z,99954.91
2023-07-11T05:58:53.153Z,99951.03
2023-07-11T05:59:24.648Z,99950.53
2023-07-11T05:59:56.060Z,99946.69
2023-07-11T06:00:27.514Z,99943.63
2023-07-11T06:00:58.947Z,99950.53
2023-07-11T06:01:30.881Z,99944.59